createdAt,value
2022-08-11T00:01:53.781Z,21.76
2022-08-11T00:04:23.834Z,21.73
2022-08-11T00:06:50.884Z,21.67
2022-08-11T00:09:19.685Z,21.61
2022-08-11T00:11:51.658Z,21.57
2022-08-11T00:14:36.978Z,21.54
2022-08-11T00:17:13.472Z,21.47
2022-08-11T00:20:12.052Z,21.42
2022-08-11T00:22:35.195Z,21.37
2022-08-11T00:25:11.011Z,21.32
2022-08-11T00:27:39.764Z,21.29
2022-08-11T00:30:10.728Z,21.25
2022-08-11T00:32:38.603Z,21.22
2022-08-11T00:35:54.595Z,21.18
2022-08-11T00:37:54.145Z,21.16
2022-08-11T00:40:45.312Z,21.11
2022-08-11T00:43:57.131Z,21.11
2022-08-11T00:46:26.232Z,21.09
2022-08-11T00:49:13.584Z,21.03
2022-08-11T00:52:05.860Z,21.03
2022-08-11T00:54:38.863Z,20.98
2022-08-11T00:57:36.641Z,20.94
2022-08-11T01:00:18.015Z,20.90
2022-08-11T01:03:01.232Z,20.86
2022-08-11T01:05:43.344Z,20.84
2022-08-11T01:08:54.634Z,20.79
2022-08-11T01:11:58.759Z,20.76
2022-08-11T01:14:45.738Z,20.75
2022-08-11T01:17:35.654Z,20.73
2022-08-11T01:20:48.022Z,20.69
2022-08-11T01:23:49.590Z,20.69
2022-08-11T01:27:04.960Z,20.63
2022-08-11T01:30:26.593Z,20.62
2022-08-11T01:33:10.863Z,20.58
2022-08-11T01:36:07.769Z,20.54
2022-08-11T01:39:08.207Z,20.46
2022-08-11T01:42:34.686Z,20.41
2022-08-11T01:45:37.236Z,20.40
2022-08-11T01:48:21.959Z,20.38
2022-08-11T01:51:22.745Z,20.36
2022-08-11T01:53:57.925Z,20.33
2022-08-11T01:56:36.950Z,20.34
2022-08-11T01:59:23.674Z,20.34
2022-08-11T02:02:21.515Z,20.34
2022-08-11T02:04:56.124Z,20.36
2022-08-11T02:08:07.941Z,20.35
2022-08-11T02:11:15.861Z,20.32
2022-08-11T02:13:49.098Z,20.30
2022-08-11T02:16:48.999Z,20.30
2022-08-11T02:19:37.086Z,20.30
2022-08-11T02:22:27.746Z,20.29
2022-08-11T02:25:00.815Z,20.30
2022-08-11T02:27:37.494Z,20.27
2022-08-11T02:30:07.667Z,20.26
2022-08-11T02:33:06.532Z,20.26
2022-08-11T02:35:57.994Z,20.25
2022-08-11T02:39:00.900Z,20.25
2022-08-11T02:42:08.799Z,20.22
2022-08-11T02:45:04.417Z,20.23
2022-08-11T02:48:17.219Z,20.21
2022-08-11T02:51:06.445Z,20.19
2022-08-11T02:53:40.957Z,20.18
2022-08-11T02:56:32.312Z,20.17
2022-08-11T02:59:27.200Z,20.15
2022-08-11T03:02:04.924Z,20.14
2022-08-11T03:04:55.515Z,20.13
2022-08-11T03:07:29.708Z,20.13
2022-08-11T03:10:21.161Z,20.12
2022-08-11T03:13:31.488Z,20.10
2022-08-11T03:16:40.045Z,20.05
2022-08-11T03:19:30.591Z,20.02
2022-08-11T03:22:08.673Z,20.02
2022-08-11T03:24:49.669Z,19.98
2022-08-11T03:27:39.435Z,19.97
2022-08-11T03:30:13.356Z,19.95
2022-08-11T03:33:35.693Z,19.90
2022-08-11T03:37:15.512Z,19.87
2022-08-11T03:39:38.169Z,19.85
2022-08-11T03:42:30.935Z,19.85
2022-08-11T03:45:30.728Z,19.83
2022-08-11T03:48:04.971Z,19.78
2022-08-11T03:51:22.172Z,19.71
2022-08-11T03:54:06.591Z,19.69
2022-08-11T03:56:55.417Z,19.68
2022-08-11T03:59:43.166Z,19.65
2022-08-11T04:02:27.490Z,19.62
2022-08-11T04:05:24.712Z,19.60
2022-08-11T04:08:22.275Z,19.58
2022-08-11T04:11:01.250Z,19.58
2022-08-11T04:13:49.609Z,19.57
2022-08-11T04:16:29.685Z,19.55
2022-08-11T04:19:41.931Z,19.52
2022-08-11T04:22:23.983Z,19.50
2022-08-11T04:25:24.696Z,19.48
2022-08-11T04:28:09.348Z,19.47
2022-08-11T04:31:08.416Z,19.45
2022-08-11T04:33:59.986Z,19.44
2022-08-11T04:37:08.689Z,19.38
2022-08-11T04:40:03.045Z,19.36
2022-08-11T04:43:20.660Z,19.36
2022-08-11T04:46:20.157Z,19.38
2022-08-11T04:49:24.268Z,19.37
2022-08-11T04:52:37.472Z,19.37
2022-08-11T04:55:56.771Z,19.36
2022-08-11T04:59:02.657Z,19.36
2022-08-11T05:01:45.923Z,19.35
2022-08-11T05:05:00.381Z,19.41
2022-08-11T05:07:55.356Z,19.51
2022-08-11T05:10:47.293Z,19.59
2022-08-11T05:13:45.944Z,19.65
2022-08-11T05:16:32.979Z,19.69
2022-08-11T05:19:19.645Z,19.75
2022-08-11T05:22:10.236Z,19.75
2022-08-11T05:25:05.201Z,19.78
2022-08-11T05:28:02.488Z,19.80
2022-08-11T05:30:48.401Z,19.84
2022-08-11T05:33:40.571Z,19.84
2022-08-11T05:36:12.903Z,19.85
2022-08-11T05:38:58.576Z,19.90
2022-08-11T05:41:45.897Z,19.92
2022-08-11T05:44:37.395Z,19.94
2022-08-11T05:47:23.195Z,19.97
2022-08-11T05:50:09.833Z,20.01
2022-08-11T05:53:03.883Z,20.08
2022-08-11T05:56:02.980Z,20.13
2022-08-11T05:58:42.574Z,20.21
2022-08-11T06:01:10.885Z,20.25
2022-08-11T06:03:58.316Z,20.29
2022-08-11T06:06:27.287Z,20.35
2022-08-11T06:08:56.710Z,20.44
2022-08-11T06:11:44.183Z,20.52
2022-08-11T06:14:11.751Z,20.58
2022-08-11T06:16:38.653Z,20.63
2022-08-11T06:19:05.967Z,20.68
2022-08-11T06:21:39.181Z,20.75
2022-08-11T06:24:16.004Z,20.82
2022-08-11T06:27:11.357Z,20.87
2022-08-11T06:29:50.166Z,20.95
2022-08-11T06:32:29.957Z,21.04
2022-08-11T06:35:18.166Z,21.14
2022-08-11T06:38:06.239Z,21.22
2022-08-11T06:40:35.726Z,21.30
2022-08-11T06:43:19.067Z,21.35
2022-08-11T06:46:04.735Z,21.42
2022-08-11T06:48:34.373Z,21.49
2022-08-11T06:51:13.340Z,21.54
2022-08-11T06:54:03.189Z,21.60
2022-08-11T06:57:12.506Z,21.66
2022-08-11T06:59:59.829Z,21.73
2022-08-11T07:02:36.269Z,21.81
2022-08-11T07:05:08.054Z,21.84
2022-08-11T07:08:33.767Z,21.93
2022-08-11T07:11:40.492Z,22.02
2022-08-11T07:14:25.790Z,22.12
2022-08-11T07:16:53.221Z,22.19
2022-08-11T07:19:44.753Z,22.24
2022-08-11T07:22:30.536Z,22.32
2022-08-11T07:25:27.533Z,22.39
2022-08-11T07:28:19.334Z,22.45
2022-08-11T07:30:46.393Z,22.54
2022-08-11T07:34:08.374Z,22.61
2022-08-11T07:36:12.674Z,22.66
2022-08-11T07:38:47.498Z,22.74
2022-08-11T07:41:15.481Z,22.84
2022-08-11T07:43:43.309Z,22.94
2022-08-11T07:46:30.149Z,23.01
2022-08-11T07:49:16.168Z,23.08
2022-08-11T07:52:02.749Z,23.16
2022-08-11T07:54:32.168Z,23.21
2022-08-11T07:57:09.149Z,23.26
2022-08-11T08:00:03.491Z,23.34
2022-08-11T08:02:59.659Z,23.45
2022-08-11T08:05:45.456Z,23.51
2022-08-11T08:08:33.343Z,23.61
2022-08-11T08:11:22.554Z,23.66
2022-08-11T08:14:13.352Z,23.75
2022-08-11T08:16:59.052Z,23.82
2022-08-11T08:19:25.992Z,23.90
2022-08-11T08:21:52.561Z,23.98
2022-08-11T08:24:23.048Z,24.04
2022-08-11T08:26:58.499Z,24.11
2022-08-11T08:29:50.837Z,24.17
2022-08-11T08:32:18.535Z,24.25
2022-08-11T08:34:46.244Z,24.34
2022-08-11T08:37:15.637Z,24.40
2022-08-11T08:40:00.713Z,24.46
2022-08-11T08:42:32.190Z,24.50
2022-08-11T08:45:04.019Z,24.56
2022-08-11T08:47:43.035Z,24.61
2022-08-11T08:50:16.562Z,24.65
2022-08-11T08:52:50.372Z,24.73
2022-08-11T08:55:20.817Z,24.84
2022-08-11T08:57:49.832Z,24.90
2022-08-11T09:00:19.371Z,24.97
2022-08-11T09:04:07.268Z,25.00
2022-08-11T09:07:12.452Z,25.11
2022-08-11T09:09:44.448Z,25.17
2022-08-11T09:12:12.940Z,25.28
2022-08-11T09:15:00.379Z,25.39
2022-08-11T09:17:41.022Z,25.46
2022-08-11T09:20:09.932Z,25.51
2022-08-11T09:23:41.390Z,25.54
2022-08-11T09:26:08.883Z,25.64
2022-08-11T09:28:36.759Z,25.73
2022-08-11T09:31:03.509Z,25.78
2022-08-11T09:33:30.558Z,25.83
2022-08-11T09:35:57.477Z,25.84
2022-08-11T09:38:49.447Z,25.85
2022-08-11T09:41:16.899Z,25.89
2022-08-11T09:44:04.393Z,25.91
2022-08-11T09:46:32.712Z,25.93
2022-08-11T09:49:00.744Z,26.04
2022-08-11T09:51:31.744Z,26.10
2022-08-11T09:54:03.854Z,26.14
2022-08-11T09:56:49.591Z,26.17
2022-08-11T09:59:18.240Z,26.19
2022-08-11T10:01:50.952Z,26.27
2022-08-11T10:04:20.659Z,26.30
2022-08-11T10:07:04.274Z,26.32
2022-08-11T10:09:50.851Z,26.37
2022-08-11T10:12:24.537Z,26.43
2022-08-11T10:15:15.744Z,26.44
2022-08-11T10:18:04.877Z,26.48
2022-08-11T10:20:34.522Z,26.56
2022-08-11T10:23:20.126Z,26.71
2022-08-11T10:26:05.839Z,26.73
2022-08-11T10:28:49.745Z,26.77
2022-08-11T10:31:56.986Z,26.73
2022-08-11T10:34:25.599Z,26.73
2022-08-11T10:36:55.362Z,26.71
2022-08-11T10:39:22.272Z,26.72
2022-08-11T10:42:12.148Z,26.79
2022-08-11T10:44:46.352Z,26.88
2022-08-11T10:47:33.003Z,26.94
2022-08-11T10:50:19.194Z,26.97
2022-08-11T10:53:06.683Z,27.01
2022-08-11T10:55:51.828Z,27.09
2022-08-11T10:58:37.127Z,27.13
2022-08-11T11:01:04.337Z,27.20
2022-08-11T11:03:34.449Z,27.24
2022-08-11T11:06:44.666Z,27.24
2022-08-11T11:09:24.685Z,27.31
2022-08-11T11:12:13.084Z,27.35
2022-08-11T11:15:00.441Z,27.42
2022-08-11T11:17:48.776Z,27.51
2022-08-11T11:20:36.277Z,27.56
2022-08-11T11:23:08.709Z,27.58
2022-08-11T11:26:14.415Z,27.61
2022-08-11T11:28:52.729Z,27.62
2022-08-11T11:31:40.360Z,27.63
2022-08-11T11:34:15.743Z,27.71
2022-08-11T11:36:56.672Z,27.84
2022-08-11T11:39:25.702Z,27.91
2022-08-11T11:41:54.079Z,27.95
2022-08-11T11:44:22.689Z,28.06
2022-08-11T11:46:50.363Z,28.09
2022-08-11T11:51:54.203Z,28.20
2022-08-11T11:54:23.679Z,28.14
2022-08-11T11:56:53.098Z,28.17
2022-08-11T11:59:39.691Z,28.21
2022-08-11T12:02:11.860Z,28.20
2022-08-11T12:04:41.882Z,28.21
2022-08-11T12:07:27.783Z,28.17
2022-08-11T12:09:55.024Z,28.21
2022-08-11T12:12:40.383Z,28.26
2022-08-11T12:15:07.550Z,28.28
2022-08-11T12:17:35.855Z,28.39
2022-08-11T12:20:03.807Z,28.45
2022-08-11T12:22:49.398Z,28.53
2022-08-11T12:25:35.347Z,28.60
2022-08-11T12:28:02.497Z,28.67
2022-08-11T12:30:29.154Z,28.69
2022-08-11T12:32:55.753Z,28.71
2022-08-11T12:35:22.364Z,28.76
2022-08-11T12:37:52.287Z,28.75
2022-08-11T12:41:11.801Z,28.85
2022-08-11T12:43:56.491Z,28.87
2022-08-11T12:46:31.731Z,28.88
2022-08-11T12:49:18.456Z,28.86
2022-08-11T12:52:12.483Z,28.88
2022-08-11T12:55:01.152Z,28.99
2022-08-11T12:57:49.412Z,29.06
2022-08-11T13:00:35.133Z,29.07
2022-08-11T13:03:21.239Z,29.18
2022-08-11T13:05:49.624Z,29.26
2022-08-11T13:08:16.901Z,29.36
2022-08-11T13:11:02.967Z,29.35
2022-08-11T13:13:53.772Z,29.37
2022-08-11T13:16:17.102Z,29.46
2022-08-11T13:18:43.986Z,29.43
2022-08-11T13:21:12.030Z,29.47
2022-08-11T13:23:59.696Z,29.53
2022-08-11T13:26:47.191Z,29.48
2022-08-11T13:29:18.230Z,29.47
2022-08-11T13:31:45.541Z,29.57
2022-08-11T13:34:12.276Z,29.63
2022-08-11T13:36:39.015Z,29.64
2022-08-11T13:39:05.688Z,29.61
2022-08-11T13:41:39.156Z,29.64
2022-08-11T13:44:10.542Z,29.72
2022-08-11T13:46:37.841Z,29.79
2022-08-11T13:49:08.944Z,29.81
2022-08-11T13:51:38.290Z,29.87
2022-08-11T13:54:13.400Z,29.96
2022-08-11T13:56:43.101Z,30.03
2022-08-11T13:59:09.479Z,30.12
2022-08-11T14:02:21.415Z,30.16
2022-08-11T14:04:35.026Z,30.08
2022-08-11T14:07:06.355Z,30.10
2022-08-11T14:09:39.649Z,30.13
2022-08-11T14:12:33.646Z,30.17
2022-08-11T14:15:08.582Z,30.20
2022-08-11T14:17:48.169Z,30.23
2022-08-11T14:20:39.501Z,30.30
2022-08-11T14:23:04.015Z,30.36
2022-08-11T14:25:59.658Z,30.35
2022-08-11T14:28:32.021Z,30.55
2022-08-11T14:31:03.505Z,30.68
2022-08-11T14:33:58.074Z,30.76
2022-08-11T14:36:20.929Z,30.73
2022-08-11T14:38:47.822Z,30.62
2022-08-11T14:41:33.246Z,30.63
2022-08-11T14:44:18.351Z,30.70
2022-08-11T14:47:03.775Z,30.71
2022-08-11T14:49:30.991Z,30.76
2022-08-11T14:51:58.638Z,30.71
2022-08-11T14:54:44.960Z,30.71
2022-08-11T14:57:11.528Z,30.62
2022-08-11T14:59:38.395Z,30.56
2022-08-11T15:02:24.276Z,30.59
2022-08-11T15:04:51.433Z,30.60
2022-08-11T15:07:17.983Z,30.67
2022-08-11T15:12:33.656Z,30.70
2022-08-11T15:15:19.199Z,30.64
2022-08-11T15:17:47.721Z,30.61
2022-08-11T15:20:36.157Z,30.55
2022-08-11T15:23:22.241Z,30.56
2022-08-11T15:25:53.528Z,30.56
2022-08-11T15:28:39.431Z,30.59
2022-08-11T15:31:24.626Z,30.65
2022-08-11T15:34:18.148Z,30.78
2022-08-11T15:37:04.319Z,30.97
2022-08-11T15:40:31.183Z,30.94
2022-08-11T15:43:20.006Z,30.80
2022-08-11T15:45:49.961Z,30.77
2022-08-11T15:48:26.399Z,30.72
2022-08-11T15:50:54.732Z,30.71
2022-08-11T15:53:28.980Z,30.77
2022-08-11T15:55:56.379Z,30.79
2022-08-11T15:58:42.390Z,30.82
2022-08-11T16:01:27.391Z,30.83
2022-08-11T16:04:14.066Z,30.77
2022-08-11T16:06:49.342Z,30.79
2022-08-11T16:09:19.248Z,30.85
2022-08-11T16:11:46.887Z,31.00
2022-08-11T16:14:34.988Z,31.12
2022-08-11T16:17:01.979Z,31.15
2022-08-11T16:19:36.292Z,31.08
2022-08-11T16:22:07.379Z,30.96
2022-08-11T16:27:04.808Z,30.83
2022-08-11T16:27:24.507Z,30.77
2022-08-11T16:29:51.664Z,30.78
2022-08-11T16:32:23.237Z,30.79
2022-08-11T16:35:13.627Z,30.77
2022-08-11T16:37:59.424Z,30.67
2022-08-11T16:40:26.252Z,30.61
2022-08-11T16:43:12.077Z,30.53
2022-08-11T16:45:58.690Z,30.51
2022-08-11T16:48:35.346Z,30.47
2022-08-11T16:51:08.739Z,30.38
2022-08-11T16:53:45.971Z,30.28
2022-08-11T16:56:25.844Z,30.19
2022-08-11T16:59:14.474Z,30.13
2022-08-11T17:01:44.631Z,30.10
2022-08-11T17:04:35.675Z,30.05
2022-08-11T17:07:42.041Z,30.04
2022-08-11T17:10:51.569Z,30.07
2022-08-11T17:13:23.986Z,30.07
2022-08-11T17:16:06.605Z,30.05
2022-08-11T17:18:54.727Z,30.04
2022-08-11T17:21:30.188Z,30.02
2022-08-11T17:24:08.529Z,29.99
2022-08-11T17:26:57.498Z,29.95
2022-08-11T17:29:53.633Z,29.85
2022-08-11T17:32:55.741Z,29.79
2022-08-11T17:35:32.614Z,29.77
2022-08-11T17:38:08.786Z,29.77
2022-08-11T17:40:38.749Z,29.72
2022-08-11T17:43:26.446Z,29.69
2022-08-11T17:46:13.677Z,29.65
2022-08-11T17:48:47.947Z,29.65
2022-08-11T17:51:37.783Z,29.61
2022-08-11T17:54:25.549Z,29.56
2022-08-11T17:57:21.434Z,29.52
2022-08-11T17:59:56.809Z,29.45
2022-08-11T18:02:50.226Z,29.41
2022-08-11T18:05:19.664Z,29.36
2022-08-11T18:08:05.510Z,29.28
2022-08-11T18:10:51.823Z,29.20
2022-08-11T18:13:39.947Z,29.14
2022-08-11T18:16:26.525Z,29.04
2022-08-11T18:19:11.609Z,28.91
2022-08-11T18:22:03.559Z,28.80
2022-08-11T18:25:05.263Z,28.67
2022-08-11T18:27:51.975Z,28.57
2022-08-11T18:30:37.249Z,28.47
2022-08-11T18:33:50.566Z,28.32
2022-08-11T18:36:30.344Z,28.14
2022-08-11T18:39:16.524Z,27.96
2022-08-11T18:42:03.665Z,27.79
2022-08-11T18:44:50.210Z,27.59
2022-08-11T18:47:35.798Z,27.45
2022-08-11T18:50:35.473Z,27.28
2022-08-11T18:53:25.576Z,27.13
2022-08-11T18:56:11.205Z,26.97
2022-08-11T18:59:00.485Z,26.81
2022-08-11T19:01:46.668Z,26.66
2022-08-11T19:04:32.570Z,26.56
2022-08-11T19:07:24.100Z,26.45
2022-08-11T19:10:09.672Z,26.35
2022-08-11T19:12:58.378Z,26.26
2022-08-11T20:08:19.183Z,24.54
2022-08-11T20:11:05.776Z,24.47
2022-08-11T20:13:51.457Z,24.41
2022-08-11T20:16:38.268Z,24.34
2022-08-11T20:19:26.166Z,24.29
2022-08-11T20:22:30.366Z,24.19
2022-08-11T20:25:15.755Z,24.14
2022-08-11T20:28:01.043Z,24.05
2022-08-11T20:30:48.571Z,24.00
2022-08-11T20:33:37.570Z,23.97
2022-08-11T20:36:23.208Z,23.88
2022-08-11T20:39:08.983Z,23.85
2022-08-11T20:41:59.349Z,23.82
2022-08-11T20:44:45.449Z,23.81
2022-08-11T20:47:30.687Z,23.73
2022-08-11T20:50:17.807Z,23.70
2022-08-11T20:53:05.458Z,23.69
2022-08-11T20:55:53.890Z,23.68
2022-08-11T21:01:45.876Z,23.56
2022-08-11T21:04:31.431Z,23.48
2022-08-11T21:07:28.009Z,23.45
2022-08-11T21:10:23.008Z,23.42
2022-08-11T21:13:26.093Z,23.41
2022-08-11T21:16:26.520Z,23.39
2022-08-11T21:19:15.810Z,23.33
2022-08-11T21:22:03.508Z,23.32
2022-08-11T21:24:49.284Z,23.32
2022-08-11T21:27:35.571Z,23.38
2022-08-11T21:30:21.136Z,23.42
2022-08-11T21:33:06.354Z,23.45
2022-08-11T21:35:52.006Z,23.43
2022-08-11T21:38:37.031Z,23.39
2022-08-11T21:41:22.758Z,23.35
2022-08-11T21:44:08.867Z,23.33
2022-08-11T21:46:55.130Z,23.28
2022-08-11T21:49:40.304Z,23.19
2022-08-11T21:52:25.095Z,23.14
2022-08-11T21:55:10.232Z,23.07
2022-08-11T21:57:55.779Z,23.02
2022-08-11T22:00:40.834Z,22.97
2022-08-11T22:03:25.984Z,22.93
2022-08-11T22:06:12.716Z,22.87
2022-08-11T22:08:57.901Z,22.87
2022-08-11T22:11:42.943Z,22.84
2022-08-11T22:14:27.832Z,22.79
2022-08-11T22:17:12.976Z,22.71
2022-08-11T22:20:00.496Z,22.63
2022-08-11T22:22:52.579Z,22.54
2022-08-11T22:25:46.521Z,22.52
2022-08-11T22:28:37.149Z,22.48
2022-08-11T22:31:23.364Z,22.44
2022-08-11T22:34:08.495Z,22.46
2022-08-11T22:36:53.626Z,22.42
2022-08-11T22:39:39.919Z,22.43
2022-08-11T22:42:33.528Z,22.41
2022-08-11T22:45:19.727Z,22.38
2022-08-11T22:48:06.497Z,22.35
2022-08-11T22:50:52.863Z,22.32
2022-08-11T22:53:57.808Z,22.32
2022-08-11T22:56:46.202Z,22.35
2022-08-11T22:59:31.903Z,22.34
2022-08-11T23:02:17.011Z,22.39
2022-08-11T23:05:02.209Z,22.42
2022-08-11T23:07:50.186Z,22.46
2022-08-11T23:10:37.522Z,22.51
2022-08-11T23:13:22.702Z,22.49
2022-08-11T23:16:08.558Z,22.49
2022-08-11T23:18:54.207Z,22.51
2022-08-11T23:21:39.660Z,22.50
2022-08-11T23:24:25.437Z,22.47
2022-08-11T23:27:10.588Z,22.48
2022-08-11T23:29:56.179Z,22.47
2022-08-11T23:32:41.999Z,22.47
2022-08-11T23:35:38.541Z,22.51
2022-08-11T23:38:24.834Z,22.52
2022-08-11T23:41:09.984Z,22.60
2022-08-11T23:43:55.590Z,22.67
2022-08-11T23:46:42.007Z,22.73
2022-08-11T23:49:28.770Z,22.73
2022-08-11T23:52:14.355Z,22.78
2022-08-11T23:54:59.842Z,22.82
2022-08-11T23:57:47.959Z,22.85
